createdAt,value
2022-09-09T00:01:38.882Z,9.05
2022-09-09T00:04:28.372Z,8.02
2022-09-09T00:07:26.097Z,6.32
2022-09-09T00:10:16.034Z,6.28
2022-09-09T00:13:20.969Z,5.65
2022-09-09T00:16:29.231Z,4.25
2022-09-09T00:19:15.089Z,3.60
2022-09-09T00:22:06.727Z,2.85
2022-09-09T00:24:44.854Z,3.92
2022-09-09T00:27:24.833Z,4.05
2022-09-09T00:30:02.687Z,2.85
2022-09-09T00:32:36.534Z,2.30
2022-09-09T00:35:19.654Z,2.45
2022-09-09T00:37:52.924Z,2.30
2022-09-09T00:40:36.226Z,3.00
2022-09-09T00:43:27.192Z,3.05
2022-09-09T00:45:59.290Z,2.53
2022-09-09T00:48:53.280Z,3.00
2022-09-09T00:51:52.995Z,3.10
2022-09-09T00:54:41.227Z,3.22
2022-09-09T00:57:25.624Z,2.95
2022-09-09T01:00:00.156Z,3.05
2022-09-09T01:02:36.452Z,3.92
2022-09-09T01:05:18.175Z,4.43
2022-09-09T01:07:49.792Z,4.75
2022-09-09T01:10:40.191Z,5.00
2022-09-09T01:13:22.947Z,4.40
2022-09-09T01:15:51.235Z,3.15
2022-09-09T01:18:23.242Z,2.83
2022-09-09T01:21:33.243Z,2.85
2022-09-09T01:24:32.282Z,2.08
2022-09-09T01:27:06.862Z,2.25
2022-09-09T01:29:34.313Z,2.28
2022-09-09T01:32:41.720Z,2.22
2022-09-09T01:35:55.421Z,2.10
2022-09-09T01:38:24.760Z,2.00
2022-09-09T01:40:53.901Z,1.75
2022-09-09T01:43:28.152Z,1.90
2022-09-09T01:45:59.471Z,2.30
2022-09-09T01:48:27.054Z,2.25
2022-09-09T01:50:53.567Z,2.00
2022-09-09T01:53:22.554Z,2.20
2022-09-09T01:56:05.713Z,1.80
2022-09-09T01:58:53.123Z,1.80
2022-09-09T02:01:50.213Z,2.20
2022-09-09T02:04:33.611Z,1.90
2022-09-09T02:07:01.343Z,1.77
2022-09-09T02:09:31.566Z,1.75
2022-09-09T02:12:14.457Z,2.00
2022-09-09T02:14:50.811Z,1.50
2022-09-09T02:17:29.420Z,1.70
2022-09-09T02:20:13.727Z,2.30
2022-09-09T02:22:46.402Z,1.95
2022-09-09T02:25:18.884Z,2.10
2022-09-09T02:27:51.367Z,1.95
2022-09-09T02:30:19.555Z,1.50
2022-09-09T02:32:49.603Z,1.52
2022-09-09T02:35:22.413Z,1.80
2022-09-09T02:37:52.727Z,1.88
2022-09-09T02:40:19.366Z,1.42
2022-09-09T02:42:50.169Z,1.70
2022-09-09T02:45:22.268Z,1.60
2022-09-09T02:48:10.490Z,1.70
2022-09-09T02:50:54.649Z,1.55
2022-09-09T02:53:44.333Z,1.60
2022-09-09T02:56:21.363Z,1.85
2022-09-09T02:58:48.917Z,1.60
2022-09-09T03:01:15.455Z,1.60
2022-09-09T03:03:43.402Z,1.60
2022-09-09T03:06:10.877Z,1.85
2022-09-09T03:08:37.469Z,3.75
2022-09-09T03:11:04.657Z,2.65
2022-09-09T03:13:31.210Z,1.75
2022-09-09T03:15:57.631Z,1.77
2022-09-09T03:18:24.143Z,1.63
2022-09-09T03:20:51.107Z,1.90
2022-09-09T03:23:18.161Z,1.55
2022-09-09T03:25:49.580Z,1.75
2022-09-09T03:28:16.427Z,1.65
2022-09-09T03:30:42.886Z,1.70
2022-09-09T03:33:09.378Z,1.98
2022-09-09T03:35:35.841Z,1.55
2022-09-09T03:38:02.358Z,1.60
2022-09-09T03:40:28.820Z,1.52
2022-09-09T03:42:55.302Z,1.50
2022-09-09T03:45:21.735Z,1.60
2022-09-09T03:47:48.294Z,1.67
2022-09-09T03:50:14.804Z,1.70
2022-09-09T03:52:43.019Z,1.70
2022-09-09T03:55:10.085Z,1.60
2022-09-09T03:57:37.034Z,1.60
2022-09-09T04:00:09.413Z,1.50
2022-09-09T04:02:36.063Z,1.40
2022-09-09T04:05:02.812Z,1.80
2022-09-09T04:07:29.443Z,1.50
2022-09-09T04:09:56.281Z,2.20
2022-09-09T04:12:23.312Z,1.77
2022-09-09T04:14:49.919Z,2.08
2022-09-09T04:17:16.682Z,1.92
2022-09-09T04:19:43.258Z,1.90
2022-09-09T04:22:10.373Z,2.30
2022-09-09T04:24:36.863Z,1.90
2022-09-09T04:27:03.682Z,1.80
2022-09-09T04:29:30.135Z,2.08
2022-09-09T04:31:56.616Z,1.77
2022-09-09T04:34:23.160Z,1.92
2022-09-09T04:36:49.602Z,2.00
2022-09-09T04:39:16.024Z,1.80
2022-09-09T04:41:42.470Z,1.50
2022-09-09T04:44:09.000Z,1.98
2022-09-09T04:46:35.422Z,1.50
2022-09-09T04:49:01.880Z,1.50
2022-09-09T04:51:29.136Z,1.60
2022-09-09T04:53:55.642Z,2.05
2022-09-09T04:56:22.254Z,2.35
2022-09-09T04:58:48.917Z,1.50
2022-09-09T05:01:25.608Z,1.50
2022-09-09T05:03:54.111Z,1.75
2022-09-09T05:06:23.134Z,1.58
2022-09-09T05:08:50.495Z,1.70
2022-09-09T05:11:25.069Z,2.10
2022-09-09T05:13:52.651Z,1.60
2022-09-09T05:16:21.616Z,1.63
2022-09-09T05:18:48.334Z,1.90
2022-09-09T05:21:17.100Z,1.60
2022-09-09T05:23:43.725Z,1.88
2022-09-09T05:26:17.737Z,1.70
2022-09-09T05:28:46.111Z,2.10
2022-09-09T05:31:15.067Z,2.30
2022-09-09T05:33:44.655Z,2.08
2022-09-09T05:36:14.571Z,2.35
2022-09-09T05:38:42.170Z,2.63
2022-09-09T05:41:16.457Z,2.00
2022-09-09T05:43:45.316Z,2.17
2022-09-09T05:46:15.751Z,2.20
2022-09-09T05:48:49.034Z,2.28
2022-09-09T05:51:18.999Z,2.40
2022-09-09T05:53:46.765Z,2.90
2022-09-09T05:56:18.388Z,2.42
2022-09-09T05:58:45.740Z,2.00
2022-09-09T06:01:16.381Z,2.20
2022-09-09T06:03:45.779Z,2.00
2022-09-09T06:06:16.405Z,5.20
2022-09-09T06:08:45.222Z,1.90
2022-09-09T06:11:16.222Z,2.28
2022-09-09T06:13:43.815Z,2.40
2022-09-09T06:16:15.928Z,2.28
2022-09-09T06:18:43.289Z,2.85
2022-09-09T06:21:18.649Z,2.28
2022-09-09T06:23:46.470Z,2.30
2022-09-09T06:26:18.950Z,1.70
2022-09-09T06:28:49.264Z,1.70
2022-09-09T06:31:24.021Z,1.80
2022-09-09T06:33:55.955Z,2.67
2022-09-09T06:36:26.570Z,2.55
2022-09-09T06:38:54.287Z,1.88
2022-09-09T06:41:23.858Z,2.42
2022-09-09T06:43:50.641Z,1.92
2022-09-09T06:46:21.047Z,2.00
2022-09-09T06:48:47.727Z,1.90
2022-09-09T06:51:19.946Z,2.80
2022-09-09T06:53:48.526Z,2.72
2022-09-09T06:56:18.128Z,2.83
2022-09-09T06:58:46.517Z,3.47
2022-09-09T07:01:16.803Z,2.35
2022-09-09T07:03:48.107Z,2.65
2022-09-09T07:06:26.790Z,2.35
2022-09-09T07:08:59.997Z,2.10
2022-09-09T07:11:33.584Z,1.67
2022-09-09T07:14:01.926Z,2.08
2022-09-09T07:16:30.329Z,1.92
2022-09-09T07:18:58.693Z,1.70
2022-09-09T07:21:28.217Z,1.65
2022-09-09T07:23:56.083Z,2.05
2022-09-09T07:26:28.426Z,1.85
2022-09-09T07:28:57.296Z,1.67
2022-09-09T07:31:31.591Z,2.05
2022-09-09T07:34:00.563Z,1.88
2022-09-09T07:36:33.412Z,2.13
2022-09-09T07:39:07.078Z,2.05
2022-09-09T07:41:39.799Z,1.73
2022-09-09T07:44:11.737Z,1.90
2022-09-09T07:46:40.646Z,1.88
2022-09-09T07:49:07.654Z,2.20
2022-09-09T07:51:37.609Z,2.13
2022-09-09T07:54:10.158Z,2.50
2022-09-09T07:56:40.279Z,1.77
2022-09-09T07:59:08.572Z,2.15
2022-09-09T08:01:43.268Z,2.20
2022-09-09T08:04:17.508Z,2.85
2022-09-09T08:06:54.312Z,2.95
2022-09-09T08:09:22.162Z,2.65
2022-09-09T08:11:49.337Z,2.20
2022-09-09T08:14:16.062Z,1.92
2022-09-09T08:16:48.860Z,2.10
2022-09-09T08:19:18.825Z,1.83
2022-09-09T08:21:46.463Z,2.15
2022-09-09T08:24:16.055Z,1.70
2022-09-09T08:26:48.378Z,2.17
2022-09-09T08:29:15.169Z,1.90
2022-09-09T08:31:48.024Z,2.53
2022-09-09T08:34:15.873Z,1.80
2022-09-09T08:36:45.924Z,1.88
2022-09-09T08:39:16.458Z,1.90
2022-09-09T08:42:03.921Z,1.90
2022-09-09T08:45:04.295Z,2.25
2022-09-09T08:48:05.735Z,1.98
2022-09-09T08:50:39.455Z,1.88
2022-09-09T08:53:18.435Z,1.80
2022-09-09T08:55:56.166Z,1.90
2022-09-09T08:58:35.456Z,2.38
2022-09-09T09:01:27.685Z,2.00
2022-09-09T09:04:15.155Z,2.03
2022-09-09T09:07:22.023Z,2.13
2022-09-09T09:10:41.753Z,1.77
2022-09-09T09:13:18.323Z,2.42
2022-09-09T09:15:58.963Z,1.98
2022-09-09T09:18:25.523Z,2.20
2022-09-09T09:21:12.835Z,2.42
2022-09-09T09:23:58.032Z,2.30
2022-09-09T09:26:32.414Z,3.08
2022-09-09T09:29:03.935Z,2.70
2022-09-09T09:31:30.467Z,2.50
2022-09-09T09:34:00.152Z,2.55
2022-09-09T09:36:57.441Z,2.15
2022-09-09T09:42:20.341Z,2.38
2022-09-09T09:44:49.719Z,2.35
2022-09-09T09:47:27.866Z,1.80
2022-09-09T09:50:00.360Z,3.45
2022-09-09T09:52:30.619Z,2.22
2022-09-09T09:55:05.243Z,2.50
2022-09-09T09:57:35.302Z,2.25
2022-09-09T10:00:26.575Z,2.47
2022-09-09T10:02:53.571Z,2.58
2022-09-09T10:05:35.563Z,2.40
2022-09-09T10:08:06.806Z,2.50
2022-09-09T10:11:02.971Z,2.05
2022-09-09T10:14:10.159Z,2.30
2022-09-09T10:17:11.227Z,2.28
2022-09-09T10:19:40.997Z,1.73
2022-09-09T10:22:26.638Z,2.00
2022-09-09T10:25:18.304Z,2.00
2022-09-09T10:28:18.982Z,1.90
2022-09-09T10:31:09.662Z,1.92
2022-09-09T10:33:52.480Z,1.90
2022-09-09T10:36:27.002Z,1.85
2022-09-09T10:39:11.315Z,2.22
2022-09-09T10:42:06.390Z,1.85
2022-09-09T10:45:11.581Z,1.90
2022-09-09T10:48:09.417Z,1.67
2022-09-09T10:51:05.860Z,2.35
2022-09-09T10:54:18.670Z,2.17
2022-09-09T10:56:54.399Z,2.17
2022-09-09T10:59:30.110Z,2.10
2022-09-09T11:02:14.318Z,1.95
2022-09-09T11:04:56.450Z,2.28
2022-09-09T11:07:33.739Z,2.17
2022-09-09T11:10:25.123Z,1.60
2022-09-09T11:13:00.478Z,1.95
2022-09-09T11:15:42.117Z,2.15
2022-09-09T11:18:20.189Z,2.78
2022-09-09T11:20:56.715Z,1.95
2022-09-09T11:23:46.638Z,2.28
2022-09-09T11:26:29.197Z,5.00
2022-09-09T11:29:15.657Z,2.40
2022-09-09T11:32:16.939Z,2.50
2022-09-09T11:35:09.658Z,2.28
2022-09-09T11:38:19.485Z,2.28
2022-09-09T11:40:47.593Z,4.47
2022-09-09T11:43:29.046Z,3.00
2022-09-09T11:46:03.577Z,3.05
2022-09-09T11:48:39.313Z,2.38
2022-09-09T11:51:16.864Z,2.35
2022-09-09T11:53:56.959Z,2.60
2022-09-09T11:56:34.571Z,7.13
2022-09-09T11:59:20.155Z,2.78
2022-09-09T12:01:51.351Z,2.30
2022-09-09T12:04:26.700Z,7.18
2022-09-09T12:07:36.655Z,4.80
2022-09-09T12:10:26.951Z,3.20
2022-09-09T12:12:53.642Z,2.53
2022-09-09T12:15:30.073Z,2.60
2022-09-09T12:18:03.806Z,2.50
2022-09-09T12:20:38.077Z,2.80
2022-09-09T12:23:27.905Z,2.65
2022-09-09T12:26:16.637Z,3.03
2022-09-09T12:29:34.055Z,2.90
2022-09-09T12:32:12.567Z,3.42
2022-09-09T12:35:01.141Z,3.13
2022-09-09T12:37:45.790Z,4.05
2022-09-09T12:40:30.113Z,2.83
2022-09-09T12:42:56.923Z,2.85
2022-09-09T12:45:27.119Z,2.95
2022-09-09T12:48:28.143Z,2.80
2022-09-09T12:50:56.647Z,3.72
2022-09-09T12:53:35.128Z,2.20
2022-09-09T12:56:09.543Z,2.58
2022-09-09T12:58:39.171Z,2.72
2022-09-09T13:01:07.368Z,2.97
2022-09-09T13:03:43.892Z,1.90
2022-09-09T13:06:23.651Z,2.20
2022-09-09T13:09:00.083Z,2.20
2022-09-09T13:11:40.506Z,2.47
2022-09-09T13:14:07.409Z,2.50
2022-09-09T13:16:42.042Z,2.28
2022-09-09T13:19:16.695Z,2.20
2022-09-09T13:21:43.522Z,2.38
2022-09-09T13:24:33.454Z,2.30
2022-09-09T13:27:03.931Z,2.25
2022-09-09T13:29:33.281Z,2.28
2022-09-09T13:32:14.022Z,1.90
2022-09-09T13:34:50.987Z,1.90
2022-09-09T13:37:34.572Z,1.67
2022-09-09T13:40:02.834Z,2.22
2022-09-09T13:42:35.779Z,2.10
2022-09-09T13:45:05.183Z,1.83
2022-09-09T13:47:35.932Z,1.92
2022-09-09T13:50:32.082Z,2.20
2022-09-09T13:53:00.271Z,2.97
2022-09-09T13:55:30.251Z,2.33
2022-09-09T13:58:03.456Z,2.38
2022-09-09T14:00:33.748Z,1.83
2022-09-09T14:03:04.138Z,2.40
2022-09-09T14:05:35.007Z,1.90
2022-09-09T14:08:05.486Z,2.20
2022-09-09T14:10:32.115Z,2.08
2022-09-09T14:12:58.604Z,2.38
2022-09-09T14:15:25.086Z,2.17
2022-09-09T14:17:53.118Z,2.45
2022-09-09T14:20:20.210Z,1.92
2022-09-09T14:22:46.715Z,2.42
2022-09-09T14:25:16.538Z,2.10
2022-09-09T14:27:43.348Z,2.72
2022-09-09T14:30:10.813Z,2.10
2022-09-09T14:32:37.271Z,2.20
2022-09-09T14:35:04.340Z,2.50
2022-09-09T14:37:32.055Z,2.20
2022-09-09T14:39:59.073Z,2.55
2022-09-09T14:42:26.838Z,2.20
2022-09-09T14:44:53.524Z,2.38
2022-09-09T14:47:20.011Z,2.75
2022-09-09T14:49:47.324Z,2.00
2022-09-09T14:52:13.984Z,2.40
2022-09-09T14:54:41.084Z,2.20
2022-09-09T14:57:07.580Z,2.97
2022-09-09T14:59:35.242Z,2.25
2022-09-09T15:02:04.983Z,2.10
2022-09-09T15:04:31.573Z,2.50
2022-09-09T15:06:59.186Z,1.95
2022-09-09T15:09:25.657Z,2.63
2022-09-09T15:11:52.188Z,1.85
2022-09-09T15:14:22.339Z,2.40
2022-09-09T15:16:51.930Z,2.30
2022-09-09T15:19:18.450Z,1.70
2022-09-09T15:21:45.307Z,2.20
2022-09-09T15:24:11.832Z,1.90
2022-09-09T15:26:41.657Z,1.90
2022-09-09T15:29:09.200Z,2.00
2022-09-09T15:31:36.753Z,1.83
2022-09-09T15:34:07.613Z,1.70
2022-09-09T15:36:44.032Z,1.60
2022-09-09T15:39:17.224Z,2.08
2022-09-09T15:41:46.256Z,1.70
2022-09-09T15:44:13.188Z,1.77
2022-09-09T15:46:42.038Z,1.80
2022-09-09T15:49:20.651Z,1.95
2022-09-09T15:51:52.164Z,1.55
2022-09-09T15:54:21.842Z,1.73
2022-09-09T15:56:56.938Z,1.70
2022-09-09T15:59:25.089Z,1.40
2022-09-09T16:01:54.440Z,1.40
2022-09-09T16:04:25.310Z,1.58
2022-09-09T16:06:54.039Z,1.50
2022-09-09T16:09:21.682Z,1.50
2022-09-09T16:11:49.167Z,1.45
2022-09-09T16:14:16.688Z,2.05
2022-09-09T16:16:43.911Z,1.45
2022-09-09T16:19:13.554Z,1.58
2022-09-09T16:21:44.123Z,1.80
2022-09-09T16:24:15.225Z,1.60
2022-09-09T16:26:48.246Z,1.30
2022-09-09T16:29:16.635Z,1.60
2022-09-09T16:31:43.695Z,1.52
2022-09-09T16:34:10.433Z,1.65
2022-09-09T16:36:40.236Z,1.50
2022-09-09T16:39:16.683Z,1.67
2022-09-09T16:41:46.536Z,1.40
2022-09-09T16:44:17.775Z,1.40
2022-09-09T16:46:45.509Z,1.65
2022-09-09T16:49:15.746Z,1.40
2022-09-09T16:51:49.452Z,1.40
2022-09-09T16:54:18.069Z,1.20
2022-09-09T16:56:47.849Z,1.25
2022-09-09T16:59:20.248Z,1.33
2022-09-09T17:01:50.043Z,1.50
2022-09-09T17:04:24.997Z,1.70
2022-09-09T17:06:54.857Z,1.70
2022-09-09T17:09:23.738Z,1.30
2022-09-09T17:11:53.014Z,1.23
2022-09-09T17:14:22.027Z,1.30
2022-09-09T17:16:48.971Z,1.52
2022-09-09T17:19:15.851Z,1.25
2022-09-09T17:22:05.787Z,1.30
2022-09-09T17:26:56.807Z,1.40
2022-09-09T17:29:23.292Z,1.25
2022-09-09T17:31:49.792Z,2.42
2022-09-09T17:34:16.243Z,2.15
2022-09-09T17:36:42.720Z,1.48
2022-09-09T17:39:09.457Z,1.88
2022-09-09T17:41:39.387Z,1.95
2022-09-09T17:46:43.642Z,1.30
2022-09-09T17:49:16.495Z,2.55
2022-09-09T17:51:46.056Z,1.80
2022-09-09T17:54:20.000Z,1.50
2022-09-09T17:56:48.135Z,1.10
2022-09-09T17:59:17.257Z,1.70
2022-09-09T18:01:47.973Z,1.42
2022-09-09T18:04:17.331Z,1.90
2022-09-09T18:06:51.124Z,1.30
2022-09-09T18:09:23.457Z,1.80
2022-09-09T18:11:54.483Z,1.63
2022-09-09T18:14:25.755Z,1.20
2022-09-09T18:16:52.909Z,1.70
2022-09-09T18:19:23.788Z,1.38
2022-09-09T18:21:50.981Z,3.28
2022-09-09T18:24:20.816Z,2.40
2022-09-09T18:26:49.291Z,1.63
2022-09-09T18:29:24.638Z,1.67
2022-09-09T18:31:53.771Z,2.10
2022-09-09T18:34:22.654Z,1.80
2022-09-09T18:36:53.661Z,1.58
2022-09-09T18:39:24.772Z,1.80
2022-09-09T18:42:00.257Z,1.50
2022-09-09T18:44:30.982Z,2.83
2022-09-09T18:46:57.814Z,2.17
2022-09-09T18:49:26.358Z,1.50
2022-09-09T18:51:53.494Z,1.50
2022-09-09T18:54:24.272Z,1.80
2022-09-09T18:56:52.886Z,1.40
2022-09-09T18:59:23.813Z,2.30
2022-09-09T19:01:52.494Z,1.63
2022-09-09T19:04:21.084Z,1.40
2022-09-09T19:06:49.190Z,1.30
2022-09-09T19:09:18.644Z,1.40
2022-09-09T19:11:45.977Z,1.20
2022-09-09T19:14:16.417Z,1.80
2022-09-09T19:16:45.203Z,3.95
2022-09-09T19:19:17.071Z,1.45
2022-09-09T19:21:44.817Z,1.52
2022-09-09T19:24:18.736Z,1.40
2022-09-09T19:26:52.111Z,2.00
2022-09-09T19:29:24.583Z,2.00
2022-09-09T19:32:29.699Z,1.70
2022-09-09T19:34:41.682Z,2.75
2022-09-09T19:37:08.166Z,2.80
2022-09-09T19:39:34.763Z,2.65
2022-09-09T19:42:01.826Z,3.22
2022-09-09T19:44:28.554Z,1.63
2022-09-09T19:46:55.495Z,3.22
2022-09-09T19:49:22.099Z,2.30
2022-09-09T19:51:48.540Z,8.00
2022-09-09T19:54:15.003Z,5.35
2022-09-09T19:56:43.378Z,2.10
2022-09-09T19:59:12.629Z,1.83
2022-09-09T20:01:46.588Z,2.10
2022-09-09T20:04:14.834Z,1.55
2022-09-09T20:06:46.098Z,1.80
2022-09-09T20:09:16.811Z,1.80
2022-09-09T20:11:46.184Z,1.35
2022-09-09T20:14:13.912Z,2.10
2022-09-09T20:16:41.321Z,3.90
2022-09-09T20:19:12.066Z,2.92
2022-09-09T20:21:48.285Z,2.17
2022-09-09T20:24:18.753Z,1.65
2022-09-09T20:26:47.888Z,1.63
2022-09-09T20:29:19.271Z,1.45
2022-09-09T20:31:46.919Z,1.38
2022-09-09T20:34:18.367Z,1.50
2022-09-09T20:36:45.239Z,1.55
2022-09-09T20:39:16.989Z,1.50
2022-09-09T20:41:45.855Z,1.40
2022-09-09T20:44:24.205Z,1.70
2022-09-09T20:46:56.927Z,1.70
2022-09-09T20:49:24.238Z,1.33
2022-09-09T20:51:51.906Z,1.83
2022-09-09T20:54:24.790Z,1.58
2022-09-09T20:56:54.962Z,1.40
2022-09-09T20:59:26.207Z,1.50
2022-09-09T21:01:53.833Z,1.50
2022-09-09T21:04:22.277Z,1.40
2022-09-09T21:06:50.972Z,1.60
2022-09-09T21:09:19.178Z,1.40
2022-09-09T21:11:47.076Z,1.50
2022-09-09T21:14:13.674Z,1.65
2022-09-09T21:16:40.186Z,1.88
2022-09-09T21:19:06.737Z,1.88
2022-09-09T21:21:33.302Z,1.77
2022-09-09T21:24:00.493Z,1.60
2022-09-09T21:26:27.784Z,1.38
2022-09-09T21:28:55.777Z,1.40
2022-09-09T21:31:27.788Z,1.55
2022-09-09T21:33:54.490Z,1.60
2022-09-09T21:36:21.015Z,1.60
2022-09-09T21:38:47.477Z,1.70
2022-09-09T21:41:16.494Z,1.65
2022-09-09T21:43:46.601Z,1.60
2022-09-09T21:46:16.798Z,2.20
2022-09-09T21:48:44.309Z,1.75
2022-09-09T21:51:15.912Z,2.03
2022-09-09T21:53:43.301Z,1.75
2022-09-09T21:56:14.046Z,3.20
2022-09-09T21:58:41.654Z,2.00
2022-09-09T22:01:15.044Z,1.90
2022-09-09T22:03:44.728Z,1.80
2022-09-09T22:06:16.061Z,2.13
2022-09-09T22:08:43.622Z,1.60
2022-09-09T22:11:18.038Z,1.50
2022-09-09T22:13:48.191Z,1.52
2022-09-09T22:16:18.210Z,1.67
2022-09-09T22:18:50.365Z,1.50
2022-09-09T22:21:18.136Z,1.77
2022-09-09T22:23:46.728Z,2.03
2022-09-09T22:26:13.177Z,1.80
2022-09-09T22:28:39.976Z,1.30
2022-09-09T22:31:06.704Z,1.60
2022-09-09T22:33:33.693Z,1.60
2022-09-09T22:36:00.422Z,1.70
2022-09-09T22:38:26.940Z,1.50
2022-09-09T22:40:53.501Z,1.58
2022-09-09T22:43:22.254Z,1.33
2022-09-09T22:45:50.767Z,1.60
2022-09-09T22:48:18.182Z,1.90
2022-09-09T22:50:45.131Z,1.73
2022-09-09T22:53:17.260Z,1.85
2022-09-09T22:55:59.342Z,1.92
2022-09-09T22:58:29.022Z,2.58
2022-09-09T23:00:59.699Z,4.50
2022-09-09T23:03:29.616Z,3.08
2022-09-09T23:06:03.307Z,4.15
2022-09-09T23:08:37.141Z,2.65
2022-09-09T23:11:11.189Z,2.10
2022-09-09T23:13:47.397Z,1.88
2022-09-09T23:16:25.663Z,1.52
2022-09-09T23:18:54.943Z,1.60
2022-09-09T23:21:25.327Z,1.67
2022-09-09T23:23:53.952Z,1.90
2022-09-09T23:26:21.206Z,1.55
2022-09-09T23:28:51.820Z,1.65
2022-09-09T23:31:22.304Z,1.77
2022-09-09T23:33:49.238Z,1.60
2022-09-09T23:36:22.266Z,1.80
2022-09-09T23:38:49.026Z,1.50
2022-09-09T23:41:20.910Z,1.58
2022-09-09T23:43:53.090Z,1.70
2022-09-09T23:46:23.506Z,1.77
2022-09-09T23:48:51.724Z,1.73
2022-09-09T23:51:23.505Z,2.72
2022-09-09T23:53:53.074Z,2.10
2022-09-09T23:56:21.747Z,4.80
2022-09-09T23:58:49.577Z,2.97
